sensor_id;sensor_type;location;lat;lon;timestamp;pressure;altitude;pressure_sealevel;temperature;humidity
64362;BME280;50685;53.346;-6.296;2023-02-02T00:01:09;102270.91;;;8.62;87.50
64362;BME280;50685;53.346;-6.296;2023-02-02T00:03:34;102280.53;;;8.59;87.73
64362;BME280;50685;53.346;-6.296;2023-02-02T00:06:01;102280.63;;;8.62;87.96
64362;BME280;50685;53.346;-6.296;2023-02-02T00:08:28;102272.69;;;8.62;88.24
64362;BME280;50685;53.346;-6.296;2023-02-02T00:10:54;102261.19;;;8.61;88.30
64362;BME280;50685;53.346;-6.296;2023-02-02T00:13:19;102275.31;;;8.62;88.60
64362;BME280;50685;53.346;-6.296;2023-02-02T00:15:44;102278.00;;;8.63;88.59
64362;BME280;50685;53.346;-6.296;2023-02-02T00:18:09;102291.22;;;8.63;88.55
64362;BME280;50685;53.346;-6.296;2023-02-02T00:20:35;102282.41;;;8.63;88.78
64362;BME280;50685;53.346;-6.296;2023-02-02T00:23:00;102287.72;;;8.66;88.78
64362;BME280;50685;53.346;-6.296;2023-02-02T00:25:26;102283.38;;;8.68;88.64
64362;BME280;50685;53.346;-6.296;2023-02-02T00:27:52;102267.50;;;8.68;88.77
64362;BME280;50685;53.346;-6.296;2023-02-02T00:30:17;102283.47;;;8.73;88.93
64362;BME280;50685;53.346;-6.296;2023-02-02T00:32:42;102270.28;;;8.76;89.01
64362;BME280;50685;53.346;-6.296;2023-02-02T00:35:08;102293.25;;;8.78;88.96
64362;BME280;50685;53.346;-6.296;2023-02-02T00:37:33;102284.47;;;8.81;88.94
64362;BME280;50685;53.346;-6.296;2023-02-02T00:39:58;102282.78;;;8.83;88.73
64362;BME280;50685;53.346;-6.296;2023-02-02T00:42:24;102273.91;;;8.81;88.75
64362;BME280;50685;53.346;-6.296;2023-02-02T00:44:49;102281.00;;;8.83;88.88
64362;BME280;50685;53.346;-6.296;2023-02-02T00:47:33;102288.06;;;8.84;88.76
64362;BME280;50685;53.346;-6.296;2023-02-02T00:49:58;102286.38;;;8.87;89.04
64362;BME280;50685;53.346;-6.296;2023-02-02T00:52:23;102278.44;;;8.88;88.69
64362;BME280;50685;53.346;-6.296;2023-02-02T00:54:49;102285.53;;;8.89;88.61
64362;BME280;50685;53.346;-6.296;2023-02-02T00:57:14;102282.91;;;8.91;88.44
64362;BME280;50685;53.346;-6.296;2023-02-02T00:59:40;102280.31;;;8.92;88.51
64362;BME280;50685;53.346;-6.296;2023-02-02T01:02:06;102284.69;;;8.92;88.22
64362;BME280;50685;53.346;-6.296;2023-02-02T01:04:31;102286.44;;;8.91;88.25
64362;BME280;50685;53.346;-6.296;2023-02-02T01:06:56;102274.97;;;8.91;88.50
64362;BME280;50685;53.346;-6.296;2023-02-02T01:09:22;102283.81;;;8.93;88.26
64362;BME280;50685;53.346;-6.296;2023-02-02T01:11:47;102272.38;;;8.94;88.55
64362;BME280;50685;53.346;-6.296;2023-02-02T01:14:12;102270.63;;;8.96;88.44
64362;BME280;50685;53.346;-6.296;2023-02-02T01:16:38;102270.69;;;8.97;88.62
64362;BME280;50685;53.346;-6.296;2023-02-02T01:19:03;102271.59;;;8.99;88.65
64362;BME280;50685;53.346;-6.296;2023-02-02T01:21:28;102285.75;;;9.02;88.84
64362;BME280;50685;53.346;-6.296;2023-02-02T01:23:54;102282.25;;;9.03;88.94
64362;BME280;50685;53.346;-6.296;2023-02-02T01:26:19;102279.63;;;9.04;89.06
64362;BME280;50685;53.346;-6.296;2023-02-02T01:28:44;102293.75;;;9.05;89.44
64362;BME280;50685;53.346;-6.296;2023-02-02T01:31:10;102272.59;;;9.06;89.58
64362;BME280;50685;53.346;-6.296;2023-02-02T01:33:36;102260.28;;;9.08;89.37
64362;BME280;50685;53.346;-6.296;2023-02-02T01:36:03;102271.78;;;9.10;89.53
64362;BME280;50685;53.346;-6.296;2023-02-02T01:38:29;102268.28;;;9.13;89.64
64362;BME280;50685;53.346;-6.296;2023-02-02T01:40:55;102247.16;;;9.14;89.64
64362;BME280;50685;53.346;-6.296;2023-02-02T01:43:22;102254.25;;;9.17;89.48
64362;BME280;50685;53.346;-6.296;2023-02-02T01:45:47;102273.66;;;9.16;89.63
64362;BME280;50685;53.346;-6.296;2023-02-02T01:48:13;102248.09;;;9.18;89.44
64362;BME280;50685;53.346;-6.296;2023-02-02T01:50:39;102266.66;;;9.20;89.39
64362;BME280;50685;53.346;-6.296;2023-02-02T01:53:04;102254.28;;;9.19;89.47
64362;BME280;50685;53.346;-6.296;2023-02-02T01:55:31;102258.72;;;9.20;89.79
64362;BME280;50685;53.346;-6.296;2023-02-02T01:58:03;102258.72;;;9.20;89.87
64362;BME280;50685;53.346;-6.296;2023-02-02T02:00:29;102249.91;;;9.21;89.98
64362;BME280;50685;53.346;-6.296;2023-02-02T02:02:56;102251.66;;;9.22;90.17
64362;BME280;50685;53.346;-6.296;2023-02-02T02:05:27;102245.50;;;9.23;89.97
64362;BME280;50685;53.346;-6.296;2023-02-02T02:07:55;102249.94;;;9.22;90.38
64362;BME280;50685;53.346;-6.296;2023-02-02T02:10:22;102251.72;;;9.25;90.68
64362;BME280;50685;53.346;-6.296;2023-02-02T02:12:47;102243.78;;;9.23;90.48
64362;BME280;50685;53.346;-6.296;2023-02-02T02:15:13;102257.88;;;9.22;90.70
64362;BME280;50685;53.346;-6.296;2023-02-02T02:18:14;102242.81;;;9.20;91.06
64362;BME280;50685;53.346;-6.296;2023-02-02T02:32:04;102239.06;;;9.05;92.57
64362;BME280;50685;53.346;-6.296;2023-02-02T02:39:26;102223.91;;;8.96;93.50
64362;BME280;50685;53.346;-6.296;2023-02-02T02:41:55;102222.03;;;8.91;94.17
64362;BME280;50685;53.346;-6.296;2023-02-02T02:44:22;102226.44;;;8.89;94.56
64362;BME280;50685;53.346;-6.296;2023-02-02T02:46:48;102228.19;;;8.88;94.56
64362;BME280;50685;53.346;-6.296;2023-02-02T02:49:14;102210.59;;;8.90;94.63
64362;BME280;50685;53.346;-6.296;2023-02-02T02:51:49;102222.97;;;8.93;94.58
64362;BME280;50685;53.346;-6.296;2023-02-02T02:54:23;102210.69;;;8.96;94.33
64362;BME280;50685;53.346;-6.296;2023-02-02T02:59:21;102215.25;;;9.05;93.85
64362;BME280;50685;53.346;-6.296;2023-02-02T03:04:40;102218.84;;;9.10;93.28
64362;BME280;50685;53.346;-6.296;2023-02-02T03:07:12;102210.03;;;9.11;93.09
64362;BME280;50685;53.346;-6.296;2023-02-02T03:09:41;102215.34;;;9.11;92.62
64362;BME280;50685;53.346;-6.296;2023-02-02T03:12:08;102217.13;;;9.14;91.89
64362;BME280;50685;53.346;-6.296;2023-02-02T03:14:36;102203.91;;;9.15;91.77
64362;BME280;50685;53.346;-6.296;2023-02-02T03:17:03;102213.69;;;9.18;91.48
64362;BME280;50685;53.346;-6.296;2023-02-02T03:19:28;102203.97;;;9.19;91.44
64362;BME280;50685;53.346;-6.296;2023-02-02T03:21:53;102212.81;;;9.19;91.33
64362;BME280;50685;53.346;-6.296;2023-02-02T03:24:19;102204.84;;;9.19;91.25
64362;BME280;50685;53.346;-6.296;2023-02-02T03:26:44;102211.94;;;9.20;91.01
64362;BME280;50685;53.346;-6.296;2023-02-02T03:29:10;102223.44;;;9.22;91.05
64362;BME280;50685;53.346;-6.296;2023-02-02T03:31:35;102215.50;;;9.22;91.21
64362;BME280;50685;53.346;-6.296;2023-02-02T03:34:01;102220.81;;;9.22;91.54
64362;BME280;50685;53.346;-6.296;2023-02-02T03:36:26;102227.81;;;9.20;91.97
64362;BME280;50685;53.346;-6.296;2023-02-02T03:38:52;102226.94;;;9.18;91.75
64362;BME280;50685;53.346;-6.296;2023-02-02T03:41:17;102222.50;;;9.17;92.12
64362;BME280;50685;53.346;-6.296;2023-02-02T03:43:42;102219.84;;;9.17;91.77
64362;BME280;50685;53.346;-6.296;2023-02-02T03:46:08;102232.19;;;9.16;92.11
64362;BME280;50685;53.346;-6.296;2023-02-02T03:48:34;102233.97;;;9.18;91.89
64362;BME280;50685;53.346;-6.296;2023-02-02T03:50:59;102232.19;;;9.16;92.04
64362;BME280;50685;53.346;-6.296;2023-02-02T03:53:24;102241.03;;;9.17;91.98
64362;BME280;50685;53.346;-6.296;2023-02-02T03:55:49;102234.81;;;9.15;91.88
64362;BME280;50685;53.346;-6.296;2023-02-02T03:58:15;102227.78;;;9.17;91.76
64362;BME280;50685;53.346;-6.296;2023-02-02T04:00:41;102232.22;;;9.18;91.60
64362;BME280;50685;53.346;-6.296;2023-02-02T04:03:07;102234.88;;;9.20;91.62
64362;BME280;50685;53.346;-6.296;2023-02-02T04:05:32;102223.38;;;9.18;91.50
64362;BME280;50685;53.346;-6.296;2023-02-02T04:07:57;102233.09;;;9.17;91.55
64362;BME280;50685;53.346;-6.296;2023-02-02T04:10:22;102227.78;;;9.17;91.32
64362;BME280;50685;53.346;-6.296;2023-02-02T04:12:48;102222.50;;;9.19;91.27
64362;BME280;50685;53.346;-6.296;2023-02-02T04:15:13;102223.44;;;9.21;91.25
64362;BME280;50685;53.346;-6.296;2023-02-02T04:17:38;102229.59;;;9.21;91.15
64362;BME280;50685;53.346;-6.296;2023-02-02T04:20:04;102224.31;;;9.21;91.60
64362;BME280;50685;53.346;-6.296;2023-02-02T04:22:29;102226.97;;;9.23;91.24
64362;BME280;50685;53.346;-6.296;2023-02-02T04:24:55;102214.66;;;9.23;91.08
64362;BME280;50685;53.346;-6.296;2023-02-02T04:27:20;102219.94;;;9.23;91.12
64362;BME280;50685;53.346;-6.296;2023-02-02T04:29:45;102219.97;;;9.26;90.81
64362;BME280;50685;53.346;-6.296;2023-02-02T04:32:12;102218.25;;;9.28;90.56
64362;BME280;50685;53.346;-6.296;2023-02-02T04:34:38;102218.28;;;9.30;90.26
64362;BME280;50685;53.346;-6.296;2023-02-02T04:37:03;102217.41;;;9.31;90.06
64362;BME280;50685;53.346;-6.296;2023-02-02T04:39:28;102225.38;;;9.32;89.92
64362;BME280;50685;53.346;-6.296;2023-02-02T04:41:55;102221.88;;;9.35;89.94
64362;BME280;50685;53.346;-6.296;2023-02-02T04:44:20;102213.97;;;9.37;89.80
64362;BME280;50685;53.346;-6.296;2023-02-02T04:46:45;102198.94;;;9.36;89.92
64362;BME280;50685;53.346;-6.296;2023-02-02T04:49:11;102197.16;;;9.35;90.39
64362;BME280;50685;53.346;-6.296;2023-02-02T04:51:37;102205.97;;;9.35;90.15
64362;BME280;50685;53.346;-6.296;2023-02-02T04:54:02;102206.81;;;9.31;90.38
64362;BME280;50685;53.346;-6.296;2023-02-02T04:56:27;102210.31;;;9.28;89.89
64362;BME280;50685;53.346;-6.296;2023-02-02T04:58:53;102196.22;;;9.29;89.75
64362;BME280;50685;53.346;-6.296;2023-02-02T05:01:20;102205.06;;;9.31;89.37
64362;BME280;50685;53.346;-6.296;2023-02-02T05:03:46;102214.78;;;9.32;89.34
64362;BME280;50685;53.346;-6.296;2023-02-02T05:06:12;102211.25;;;9.33;89.51
64362;BME280;50685;53.346;-6.296;2023-02-02T05:08:38;102224.53;;;9.35;89.15
64362;BME280;50685;53.346;-6.296;2023-02-02T05:11:07;102196.31;;;9.36;89.38
64362;BME280;50685;53.346;-6.296;2023-02-02T05:13:32;102198.09;;;9.37;89.30
64362;BME280;50685;53.346;-6.296;2023-02-02T05:15:58;102213.06;;;9.36;89.98
64362;BME280;50685;53.346;-6.296;2023-02-02T05:18:23;102221.00;;;9.35;89.93
64362;BME280;50685;53.346;-6.296;2023-02-02T05:20:49;102214.81;;;9.34;90.08
64362;BME280;50685;53.346;-6.296;2023-02-02T05:23:15;102209.47;;;9.31;90.21
64362;BME280;50685;53.346;-6.296;2023-02-02T05:25:40;102227.97;;;9.28;90.06
64362;BME280;50685;53.346;-6.296;2023-02-02T05:28:05;102209.38;;;9.25;90.02
64362;BME280;50685;53.346;-6.296;2023-02-02T05:30:30;102213.75;;;9.23;90.15
64362;BME280;50685;53.346;-6.296;2023-02-02T05:32:56;102215.44;;;9.18;90.28
64362;BME280;50685;53.346;-6.296;2023-02-02T05:35:21;102191.50;;;9.11;89.99
64362;BME280;50685;53.346;-6.296;2023-02-02T05:37:46;102196.78;;;9.08;90.13
64362;BME280;50685;53.346;-6.296;2023-02-02T05:40:11;102202.06;;;9.08;89.85
64362;BME280;50685;53.346;-6.296;2023-02-02T05:42:37;102195.94;;;9.11;89.40
64362;BME280;50685;53.346;-6.296;2023-02-02T05:45:02;102203.91;;;9.15;88.95
64362;BME280;50685;53.346;-6.296;2023-02-02T05:47:27;102195.16;;;9.18;88.71
64362;BME280;50685;53.346;-6.296;2023-02-02T05:49:53;102184.56;;;9.18;88.68
64362;BME280;50685;53.346;-6.296;2023-02-02T05:52:18;102199.63;;;9.21;89.47
64362;BME280;50685;53.346;-6.296;2023-02-02T05:54:45;102181.00;;;9.14;91.10
64362;BME280;50685;53.346;-6.296;2023-02-02T05:57:11;102190.56;;;9.08;91.37
64362;BME280;50685;53.346;-6.296;2023-02-02T05:59:36;102193.97;;;8.99;92.03
64362;BME280;50685;53.346;-6.296;2023-02-02T06:02:01;102183.38;;;8.97;92.04
64362;BME280;50685;53.346;-6.296;2023-02-02T06:04:26;102191.25;;;8.96;91.85
64362;BME280;50685;53.346;-6.296;2023-02-02T06:06:52;102185.09;;;8.97;91.60
64362;BME280;50685;53.346;-6.296;2023-02-02T06:09:17;102178.97;;;8.99;91.59
64362;BME280;50685;53.346;-6.296;2023-02-02T06:11:43;102189.56;;;8.99;91.61
64362;BME280;50685;53.346;-6.296;2023-02-02T06:14:08;102193.97;;;9.00;91.69
64362;BME280;50685;53.346;-6.296;2023-02-02T06:16:33;102188.69;;;9.00;91.69
64362;BME280;50685;53.346;-6.296;2023-02-02T06:18:59;102179.00;;;9.01;91.30
64362;BME280;50685;53.346;-6.296;2023-02-02T06:21:24;102181.59;;;8.99;91.19
64362;BME280;50685;53.346;-6.296;2023-02-02T06:23:49;102197.50;;;8.99;90.82
64362;BME280;50685;53.346;-6.296;2023-02-02T06:26:15;102177.25;;;9.02;90.95
64362;BME280;50685;53.346;-6.296;2023-02-02T06:28:41;102171.94;;;9.00;91.09
64362;BME280;50685;53.346;-6.296;2023-02-02T06:31:07;102177.22;;;8.98;91.33
64362;BME280;50685;53.346;-6.296;2023-02-02T06:33:32;102172.78;;;8.97;91.92
64362;BME280;50685;53.346;-6.296;2023-02-02T06:35:58;102184.16;;;8.93;92.16
64362;BME280;50685;53.346;-6.296;2023-02-02T06:38:24;102184.13;;;8.90;92.10
64362;BME280;50685;53.346;-6.296;2023-02-02T06:40:49;102194.59;;;8.84;92.50
64362;BME280;50685;53.346;-6.296;2023-02-02T06:43:14;102198.97;;;8.82;92.53
64362;BME280;50685;53.346;-6.296;2023-02-02T06:45:40;102181.28;;;8.78;92.58
64362;BME280;50685;53.346;-6.296;2023-02-02T06:48:06;102177.69;;;8.76;93.06
64362;BME280;50685;53.346;-6.296;2023-02-02T06:50:35;102181.19;;;8.73;93.29
64362;BME280;50685;53.346;-6.296;2023-02-02T06:53:01;102188.25;;;8.73;93.20
64362;BME280;50685;53.346;-6.296;2023-02-02T06:55:26;102203.22;;;8.72;93.05
64362;BME280;50685;53.346;-6.296;2023-02-02T06:57:55;102204.94;;;8.70;92.64
64362;BME280;50685;53.346;-6.296;2023-02-02T07:00:20;102208.47;;;8.69;91.92
64362;BME280;50685;53.346;-6.296;2023-02-02T07:02:45;102204.94;;;8.70;91.48
64362;BME280;50685;53.346;-6.296;2023-02-02T07:05:11;102182.06;;;8.72;91.06
64362;BME280;50685;53.346;-6.296;2023-02-02T07:07:36;102203.22;;;8.74;90.66
64362;BME280;50685;53.346;-6.296;2023-02-02T07:10:01;102194.44;;;8.75;90.27
64362;BME280;50685;53.346;-6.296;2023-02-02T07:12:27;102205.00;;;8.75;89.92
64362;BME280;50685;53.346;-6.296;2023-02-02T07:14:52;102205.94;;;8.75;89.74
64362;BME280;50685;53.346;-6.296;2023-02-02T07:17:18;102189.13;;;8.73;89.59
64362;BME280;50685;53.346;-6.296;2023-02-02T07:19:43;102191.78;;;8.73;89.48
64362;BME280;50685;53.346;-6.296;2023-02-02T07:22:08;102197.91;;;8.72;89.25
64362;BME280;50685;53.346;-6.296;2023-02-02T07:24:34;102195.25;;;8.71;88.92
64362;BME280;50685;53.346;-6.296;2023-02-02T07:27:05;102209.34;;;8.70;89.15
64362;BME280;50685;53.346;-6.296;2023-02-02T07:29:31;102209.34;;;8.70;88.94
64362;BME280;50685;53.346;-6.296;2023-02-02T07:31:56;102203.19;;;8.71;88.80
64362;BME280;50685;53.346;-6.296;2023-02-02T07:34:21;102204.94;;;8.70;88.54
64362;BME280;50685;53.346;-6.296;2023-02-02T07:36:47;102185.59;;;8.73;88.47
64362;BME280;50685;53.346;-6.296;2023-02-02T07:39:12;102186.56;;;8.76;87.99
64362;BME280;50685;53.346;-6.296;2023-02-02T07:41:38;102189.22;;;8.79;87.89
64362;BME280;50685;53.346;-6.296;2023-02-02T07:44:03;102173.44;;;8.82;87.80
64362;BME280;50685;53.346;-6.296;2023-02-02T07:46:29;102201.69;;;8.85;88.11
64362;BME280;50685;53.346;-6.296;2023-02-02T07:48:55;102213.16;;;8.87;88.71
64362;BME280;50685;53.346;-6.296;2023-02-02T07:51:21;102202.53;;;8.84;90.32
64362;BME280;50685;53.346;-6.296;2023-02-02T07:53:48;102194.50;;;8.78;90.78
64362;BME280;50685;53.346;-6.296;2023-02-02T07:56:14;102194.41;;;8.72;91.24
64362;BME280;50685;53.346;-6.296;2023-02-02T07:58:40;102204.00;;;8.66;91.52
64362;BME280;50685;53.346;-6.296;2023-02-02T08:01:07;102193.38;;;8.63;92.13
64362;BME280;50685;53.346;-6.296;2023-02-02T08:03:33;102190.69;;;8.62;91.85
64362;BME280;50685;53.346;-6.296;2023-02-02T08:05:59;102184.50;;;8.61;91.47
64362;BME280;50685;53.346;-6.296;2023-02-02T08:08:24;102181.00;;;8.62;91.08
64362;BME280;50685;53.346;-6.296;2023-02-02T08:10:50;102185.53;;;8.68;90.81
64362;BME280;50685;53.346;-6.296;2023-02-02T08:13:16;102189.13;;;8.73;90.26
64362;BME280;50685;53.346;-6.296;2023-02-02T08:15:47;102205.13;;;8.81;89.71
64362;BME280;50685;53.346;-6.296;2023-02-02T08:18:14;102206.13;;;8.86;89.38
64362;BME280;50685;53.346;-6.296;2023-02-02T08:20:39;102197.34;;;8.90;89.25
64362;BME280;50685;53.346;-6.296;2023-02-02T08:23:04;102216.72;;;8.89;89.29
64362;BME280;50685;53.346;-6.296;2023-02-02T08:25:34;102211.44;;;8.89;88.87
64362;BME280;50685;53.346;-6.296;2023-02-02T08:28:01;102213.22;;;8.90;88.63
64362;BME280;50685;53.346;-6.296;2023-02-02T08:30:29;102204.44;;;8.91;88.60
64362;BME280;50685;53.346;-6.296;2023-02-02T08:32:54;102199.16;;;8.93;88.51
64362;BME280;50685;53.346;-6.296;2023-02-02T08:35:20;102200.97;;;8.95;88.30
64362;BME280;50685;53.346;-6.296;2023-02-02T08:37:51;102208.91;;;8.97;88.11
64362;BME280;50685;53.346;-6.296;2023-02-02T08:40:17;102216.94;;;9.02;88.11
64362;BME280;50685;53.346;-6.296;2023-02-02T08:42:42;102207.28;;;9.04;88.10
64362;BME280;50685;53.346;-6.296;2023-02-02T08:45:10;102214.34;;;9.05;88.26
64362;BME280;50685;53.346;-6.296;2023-02-02T08:47:35;102194.09;;;9.07;88.51
64362;BME280;50685;53.346;-6.296;2023-02-02T08:50:01;102213.59;;;9.12;88.49
64362;BME280;50685;53.346;-6.296;2023-02-02T08:52:26;102214.50;;;9.14;88.18
64362;BME280;50685;53.346;-6.296;2023-02-02T08:54:51;102206.56;;;9.15;88.12
64362;BME280;50685;53.346;-6.296;2023-02-02T08:57:17;102225.19;;;9.20;87.51
64362;BME280;50685;53.346;-6.296;2023-02-02T08:59:42;102209.38;;;9.26;86.56
64362;BME280;50685;53.346;-6.296;2023-02-02T09:02:11;102221.84;;;9.33;85.88
64362;BME280;50685;53.346;-6.296;2023-02-02T09:04:59;102229.09;;;9.44;84.99
64362;BME280;50685;53.346;-6.296;2023-02-02T09:07:25;102216.84;;;9.52;84.94
64362;BME280;50685;53.346;-6.296;2023-02-02T09:09:52;102223.06;;;9.54;84.58
64362;BME280;50685;53.346;-6.296;2023-02-02T09:12:20;102224.00;;;9.58;84.44
64362;BME280;50685;53.346;-6.296;2023-02-02T09:14:45;102216.91;;;9.57;84.49
64362;BME280;50685;53.346;-6.296;2023-02-02T09:17:11;102231.09;;;9.62;84.29
64362;BME280;50685;53.346;-6.296;2023-02-02T09:19:37;102241.78;;;9.67;83.54
64362;BME280;50685;53.346;-6.296;2023-02-02T09:22:02;102240.91;;;9.68;82.23
64362;BME280;50685;53.346;-6.296;2023-02-02T09:24:27;102250.66;;;9.72;82.11
64362;BME280;50685;53.346;-6.296;2023-02-02T09:26:53;102248.94;;;9.74;82.19
64362;BME280;50685;53.346;-6.296;2023-02-02T09:29:18;102250.75;;;9.78;82.31
64362;BME280;50685;53.346;-6.296;2023-02-02T09:31:44;102248.19;;;9.83;82.02
64362;BME280;50685;53.346;-6.296;2023-02-02T09:34:10;102243.03;;;9.93;81.85
64362;BME280;50685;53.346;-6.296;2023-02-02T09:36:36;102249.31;;;10.02;81.47
64362;BME280;50685;53.346;-6.296;2023-02-02T09:39:05;102258.16;;;10.01;81.31
64362;BME280;50685;53.346;-6.296;2023-02-02T09:49:13;102262.38;;;9.89;82.50
64362;BME280;50685;53.346;-6.296;2023-02-02T09:51:45;102270.38;;;9.91;82.19
64362;BME280;50685;53.346;-6.296;2023-02-02T09:57:14;102266.72;;;9.84;82.35
64362;BME280;50685;53.346;-6.296;2023-02-02T09:59:42;102256.19;;;9.86;82.81
64362;BME280;50685;53.346;-6.296;2023-02-02T10:02:20;102261.44;;;9.84;82.23
64362;BME280;50685;53.346;-6.296;2023-02-02T10:04:47;102264.94;;;9.83;82.05
64362;BME280;50685;53.346;-6.296;2023-02-02T10:07:15;102263.22;;;9.85;82.04
64362;BME280;50685;53.346;-6.296;2023-02-02T10:09:50;102264.09;;;9.84;81.88
64362;BME280;50685;53.346;-6.296;2023-02-02T10:14:53;102276.56;;;9.91;81.72
64362;BME280;50685;53.346;-6.296;2023-02-02T10:17:25;102280.13;;;9.93;81.77
64362;BME280;50685;53.346;-6.296;2023-02-02T10:20:00;102276.63;;;9.94;82.13
64362;BME280;50685;53.346;-6.296;2023-02-02T10:22:26;102289.00;;;9.95;82.09
64362;BME280;50685;53.346;-6.296;2023-02-02T10:24:54;102274.84;;;9.95;82.30
64362;BME280;50685;53.346;-6.296;2023-02-02T10:27:32;102285.44;;;9.96;82.80
64362;BME280;50685;53.346;-6.296;2023-02-02T10:30:01;102281.00;;;9.92;83.79
64362;BME280;50685;53.346;-6.296;2023-02-02T10:37:31;102286.16;;;9.83;85.91
64362;BME280;50685;53.346;-6.296;2023-02-02T10:40:12;102293.22;;;9.81;86.41
64362;BME280;50685;53.346;-6.296;2023-02-02T10:45:34;102287.94;;;9.84;86.97
64362;BME280;50685;53.346;-6.296;2023-02-02T10:48:01;102299.53;;;9.91;87.02
64362;BME280;50685;53.346;-6.296;2023-02-02T10:50:27;102295.97;;;9.90;86.74
64362;BME280;50685;53.346;-6.296;2023-02-02T10:52:53;102292.44;;;9.88;86.35
64362;BME280;50685;53.346;-6.296;2023-02-02T10:58:25;102295.09;;;9.90;87.09
64362;BME280;50685;53.346;-6.296;2023-02-02T11:00:55;102293.31;;;9.90;86.96
64362;BME280;50685;53.346;-6.296;2023-02-02T11:03:32;102301.31;;;9.92;86.63
64362;BME280;50685;53.346;-6.296;2023-02-02T11:06:01;102301.31;;;9.92;87.02
64362;BME280;50685;53.346;-6.296;2023-02-02T11:08:46;102313.56;;;9.85;88.22
64362;BME280;50685;53.346;-6.296;2023-02-02T11:11:19;102293.13;;;9.76;89.95
64362;BME280;50685;53.346;-6.296;2023-02-02T11:16:32;102297.31;;;9.60;90.72
64362;BME280;50685;53.346;-6.296;2023-02-02T11:18:58;102318.59;;;9.67;91.84
64362;BME280;50685;53.346;-6.296;2023-02-02T11:21:24;102292.09;;;9.65;92.46
64362;BME280;50685;53.346;-6.296;2023-02-02T11:23:52;102293.88;;;9.68;92.21
64362;BME280;50685;53.346;-6.296;2023-02-02T11:26:18;102273.41;;;9.57;92.00
64362;BME280;50685;53.346;-6.296;2023-02-02T11:28:47;102291.25;;;9.68;91.08
64362;BME280;50685;53.346;-6.296;2023-02-02T11:31:28;102285.13;;;9.73;90.18
64362;BME280;50685;53.346;-6.296;2023-02-02T11:33:53;102282.59;;;9.81;89.02
64362;BME280;50685;53.346;-6.296;2023-02-02T11:36:31;102276.47;;;9.87;88.62
64362;BME280;50685;53.346;-6.296;2023-02-02T11:39:17;102271.25;;;9.91;87.74
64362;BME280;50685;53.346;-6.296;2023-02-02T11:41:43;102277.50;;;9.96;87.26
64362;BME280;50685;53.346;-6.296;2023-02-02T11:44:16;102287.31;;;10.01;86.58
64362;BME280;50685;53.346;-6.296;2023-02-02T11:46:44;102277.63;;;10.04;86.09
64362;BME280;50685;53.346;-6.296;2023-02-02T11:49:15;102290.97;;;10.10;85.95
64362;BME280;50685;53.346;-6.296;2023-02-02T11:51:43;102299.88;;;10.16;85.77
64362;BME280;50685;53.346;-6.296;2023-02-02T11:54:29;102300.75;;;10.16;85.47
64362;BME280;50685;53.346;-6.296;2023-02-02T11:56:58;102285.75;;;10.17;84.94
64362;BME280;50685;53.346;-6.296;2023-02-02T12:02:07;102280.44;;;10.18;84.38
64362;BME280;50685;53.346;-6.296;2023-02-02T12:04:35;102267.19;;;10.18;83.83
64362;BME280;50685;53.346;-6.296;2023-02-02T12:07:00;102264.53;;;10.18;83.31
64362;BME280;50685;53.346;-6.296;2023-02-02T12:09:25;102294.63;;;10.20;83.13
64362;BME280;50685;53.346;-6.296;2023-02-02T12:14:31;102269.13;;;10.33;81.19
64362;BME280;50685;53.346;-6.296;2023-02-02T12:17:08;102262.03;;;10.31;80.78
64362;BME280;50685;53.346;-6.296;2023-02-02T12:30:00;102272.97;;;10.54;78.90
64362;BME280;50685;53.346;-6.296;2023-02-02T12:35:35;102256.22;;;10.61;78.28
64362;BME280;50685;53.346;-6.296;2023-02-02T12:38:09;102258.03;;;10.67;77.91
64362;BME280;50685;53.346;-6.296;2023-02-02T12:45:43;102248.28;;;10.59;77.99
64362;BME280;50685;53.346;-6.296;2023-02-02T12:48:14;102245.56;;;10.58;77.64
64362;BME280;50685;53.346;-6.296;2023-02-02T12:56:04;102235.75;;;10.48;77.78
64362;BME280;50685;53.346;-6.296;2023-02-02T13:01:06;102231.31;;;10.43;77.81
64362;BME280;50685;53.346;-6.296;2023-02-02T13:09:05;102205.88;;;10.69;76.45
64362;BME280;50685;53.346;-6.296;2023-02-02T13:11:45;102228.09;;;10.75;76.01
64362;BME280;50685;53.346;-6.296;2023-02-02T13:14:22;102224.56;;;10.78;75.97
64362;BME280;50685;53.346;-6.296;2023-02-02T13:16:51;102226.38;;;10.82;76.74
64362;BME280;50685;53.346;-6.296;2023-02-02T13:19:51;102215.69;;;10.77;76.54
64362;BME280;50685;53.346;-6.296;2023-02-02T13:22:52;102223.66;;;10.74;76.78
64362;BME280;50685;53.346;-6.296;2023-02-02T13:24:58;102234.28;;;10.76;77.16
64362;BME280;50685;53.346;-6.296;2023-02-02T13:27:25;102227.22;;;10.81;76.70
64362;BME280;50685;53.346;-6.296;2023-02-02T13:30:01;102229.94;;;10.87;76.40
64362;BME280;50685;53.346;-6.296;2023-02-02T13:32:32;102213.13;;;10.87;75.76
64362;BME280;50685;53.346;-6.296;2023-02-02T13:37:49;102231.88;;;11.04;75.83
64362;BME280;50685;53.346;-6.296;2023-02-02T13:47:50;102216.91;;;11.17;74.96
64362;BME280;50685;53.346;-6.296;2023-02-02T13:50:20;102197.38;;;11.07;74.83
64362;BME280;50685;53.346;-6.296;2023-02-02T14:00:42;102210.81;;;11.32;74.68
64362;BME280;50685;53.346;-6.296;2023-02-02T14:06:01;102193.06;;;11.21;73.98
64362;BME280;50685;53.346;-6.296;2023-02-02T14:08:30;102193.88;;;11.13;73.86
64362;BME280;50685;53.346;-6.296;2023-02-02T14:11:01;102226.66;;;11.16;74.39
64362;BME280;50685;53.346;-6.296;2023-02-02T14:13:36;102193.00;;;11.15;74.12
64362;BME280;50685;53.346;-6.296;2023-02-02T14:18:56;102178.88;;;11.19;74.61
64362;BME280;50685;53.346;-6.296;2023-02-02T14:26:54;102167.25;;;11.00;74.89
64362;BME280;50685;53.346;-6.296;2023-02-02T14:31:59;102181.34;;;10.96;76.22
64362;BME280;50685;53.346;-6.296;2023-02-02T14:34:31;102190.19;;;10.92;76.91
64362;BME280;50685;53.346;-6.296;2023-02-02T14:39:53;102180.28;;;10.71;79.77
64362;BME280;50685;53.346;-6.296;2023-02-02T14:45:27;102181.97;;;10.64;81.50
64362;BME280;50685;53.346;-6.296;2023-02-02T14:52:54;102168.78;;;10.75;80.67
64362;BME280;50685;53.346;-6.296;2023-02-02T14:55:21;102186.50;;;10.74;80.53
64362;BME280;50685;53.346;-6.296;2023-02-02T14:57:54;102186.44;;;10.71;80.57